Date,TemperatureHighF,TemperatureAvgF,TemperatureLowF,DewpointHighF,DewpointAvgF,DewpointLowF,HumidityHigh,HumidityAvg,HumidityLow,PressureMaxIn,PressureMinIn,WindSpeedMaxMPH,WindSpeedAvgMPH,GustSpeedMaxMPH,PrecipitationSumIn
2012-1-1,34,29,22,33,23,11,97,80,64,0.00,40.00,22,15,41,0.08
2012-1-2,20,16,8,11,5,-2,70,62,50,0.00,40.00,23,14,35,0.04
2012-1-3,25,14,-1,9,1,-6,79,60,39,0.00,40.00,8,5,16,0.00
2012-1-4,33,23,13,20,14,7,87,69,52,0.00,40.00,12,6,22,0.00
2012-1-5,51,34,15,32,23,12,89,67,44,0.00,40.00,12,5,20,0.00
2012-1-6,48,43,34,32,28,24,68,55,41,0.00,40.00,12,7,18,0.00
2012-1-7,38,32,19,25,20,14,85,62,48,0.00,40.00,14,8,27,0.00
2012-1-8,41,26,15,26,20,12,90,77,53,0.00,40.00,8,4,14,0.00
2012-1-9,46,36,27,27,25,24,88,66,43,0.00,40.00,18,9,28,0.00
2012-1-10,53,34,20,31,26,18,92,73,42,0.00,40.00,15,5,24,0.00
2012-1-11,53,37,27,32,27,21,86,70,39,0.00,40.00,15,7,27,0.00
2012-1-12,25,17,13,21,12,7,87,81,74,0.00,40.00,18,14,29,0.03
2012-1-13,18,14,12,9,7,5,80,73,65,0.00,40.00,15,10,25,0.01
2012-1-14,20,14,11,6,4,1,76,64,48,0.00,40.00,7,3,11,0.00
2012-1-15,35,24,16,24,16,6,82,72,55,0.00,40.00,9,6,21,0.00
2012-1-16,41,30,21,27,24,19,92,78,58,0.00,40.00,6,4,15,0.00
2012-1-17,31,20,7,24,12,-4,87,69,60,0.00,40.00,18,11,28,0.00
2012-1-18,22,9,-7,16,-2,-13,83,61,40,0.00,40.00,12,6,29,0.00
2012-1-19,22,-1,-15,16,-17,-27,78,48,28,0.00,40.00,18,10,33,0.00
2012-1-20,6,-4,-17,-2,-13,-27,77,67,56,0.00,40.00,4,2,7,0.05
2012-1-21,21,4,-17,0,-10,-25,74,56,29,0.00,40.00,7,3,14,0.01
2012-1-22,29,21,12,28,18,3,96,85,65,0.00,40.00,9,6,18,0.00
2012-1-23,31,28,24,30,25,19,97,90,80,0.00,40.00,15,9,30,0.13
2012-1-24,29,23,14,19,17,11,88,78,65,0.00,40.00,12,7,24,0.01
2012-1-25,33,25,15,22,19,12,88,77,64,0.00,40.00,8,4,15,0.00
2012-1-26,35,30,24,31,27,20,96,88,69,0.00,40.00,16,6,27,0.00
2012-1-27,40,31,18,30,20,10,90,66,30,0.00,40.00,13,8,28,0.00
2012-1-28,32,24,9,29,13,3,89,65,47,0.00,40.00,19,11,31,0.00
2012-1-29,25,15,4,13,6,-1,87,68,40,0.00,40.00,13,6,25,0.00
2012-1-30,44,27,5,25,16,-1,87,66,46,0.00,40.00,8,4,16,0.00
2012-1-31,50,40,26,35,30,23,89,69,48,0.00,40.00,15,8,27,0.00
2012-2-1,37,33,26,31,28,25,94,82,73,0.00,40.00,15,6,25,0.00
2012-2-2,34,31,26,30,29,25,98,92,83,0.00,40.00,7,4,13,0.00
2012-2-3,32,30,24,28,27,20,92,86,80,0.00,40.00,6,2,12,0.00
2012-2-4,47,30,17,29,20,14,93,71,33,0.00,40.00,9,4,14,0.00
2012-2-5,34,28,19,26,24,17,93,86,71,0.00,40.00,10,6,18,0.00
2012-2-6,40,30,25,27,25,22,89,80,59,0.00,40.00,12,7,18,0.00
2012-2-7,32,27,17,26,18,12,91,69,55,0.00,40.00,9,5,19,0.00
2012-2-8,32,20,8,11,4,-5,83,54,21,0.00,40.00,11,6,18,0.00
2012-2-9,36,24,12,21,11,4,73,57,33,0.00,40.00,15,7,25,0.00
2012-2-10,31,20,7,26,10,-7,82,65,38,0.00,40.00,16,10,28,0.00
2012-2-11,18,10,3,-7,-10,-13,55,39,30,0.00,40.00,17,12,32,0.00
2012-2-12,30,19,10,-1,-4,-6,49,37,23,0.00,40.00,12,9,22,0.00
2012-2-13,32,21,4,26,12,-3,94,70,48,0.00,40.00,11,5,19,0.08
2012-2-14,33,30,26,28,26,24,95,85,69,0.00,40.00,9,4,14,0.05
2012-2-15,45,35,30,31,28,26,90,77,55,0.00,40.00,7,4,12,0.00
2012-2-16,42,33,25,28,22,15,94,69,35,0.00,40.00,15,7,28,0.00
2012-2-17,42,32,23,27,23,19,89,70,51,0.00,40.00,12,7,21,0.00
2012-2-18,38,28,19,26,16,10,84,62,31,0.00,40.00,16,5,22,0.00
2012-2-19,42,26,11,19,12,7,86,62,28,0.00,40.00,8,3,15,0.00
2012-2-20,42,30,16,23,17,12,87,60,35,0.00,40.00,11,6,22,0.00
2012-2-21,41,34,31,32,27,18,94,75,54,0.00,40.00,18,10,33,0.02
2012-2-22,41,33,24,24,19,14,86,60,34,0.00,40.00,14,8,23,0.01
2012-2-23,40,30,18,23,19,14,87,67,44,0.00,40.00,6,3,11,0.00
2012-2-24,32,29,22,27,18,9,91,66,48,0.00,40.00,16,10,28,0.00
2012-2-25,32,22,14,13,9,4,71,58,41,0.00,40.00,12,8,21,0.00
2012-2-26,47,32,20,28,18,11,70,57,42,0.00,40.00,18,11,31,0.00
2012-2-27,35,28,19,18,16,13,80,60,42,0.00,40.00,16,11,31,0.00
2012-2-28,34,29,19,31,22,14,93,75,54,0.00,40.00,10,5,20,0.33
2012-2-29,37,34,31,36,31,29,97,93,79,0.00,40.00,15,8,27,0.78
2012-3-1,34,32,30,31,28,26,94,84,73,0.00,40.00,10,5,20,0.02
2012-3-2,33,30,24,31,28,22,95,91,78,0.00,40.00,13,4,25,0.16
2012-3-3,30,27,25,24,21,18,87,76,67,0.00,40.00,15,10,25,0.04
2012-3-4,29,24,17,21,18,12,91,80,61,0.00,40.00,7,4,12,0.01
2012-3-5,35,24,8,20,14,4,88,68,41,0.00,40.00,10,6,23,0.01
2012-3-6,62,44,27,41,31,21,81,63,41,0.00,40.00,15,7,26,0.00
2012-3-7,60,52,37,51,40,31,91,65,45,0.00,40.00,16,12,32,0.04
2012-3-8,37,34,28,31,18,1,82,55,29,0.00,40.00,27,13,40,0.01
2012-3-9,35,27,18,6,1,-5,57,35,17,0.00,40.00,16,9,34,0.00
2012-3-10,65,47,28,26,17,-100,48,34,19,0.00,40.00,23,13,43,0.00
2012-3-11,68,55,42,30,27,23,60,36,18,0.00,40.00,13,8,23,0.00
2012-3-12,57,52,48,51,45,35,98,79,45,0.00,40.00,15,8,27,0.26
2012-3-13,66,53,41,44,31,23,81,48,19,0.00,40.00,13,7,22,0.02
2012-3-14,78,62,46,56,46,29,77,57,43,0.00,40.00,15,8,25,0.00
2012-3-15,76,58,46,55,51,45,100,79,47,0.00,40.00,5,2,9,0.00
2012-3-16,79,60,41,59,50,40,99,73,46,0.00,40.00,8,4,25,0.00
2012-3-17,83,70,60,61,57,53,90,65,36,0.00,40.00,17,8,30,0.00
2012-3-18,83,70,57,58,55,51,79,62,40,0.00,40.00,14,8,28,0.00
2012-3-19,75,67,61,61,58,56,89,74,58,0.00,40.00,12,7,26,0.00
2012-3-20,81,69,59,59,52,-100,90,60,36,0.00,40.00,18,7,31,0.00
2012-3-21,81,70,61,56,52,47,84,55,35,0.00,40.00,14,6,23,0.00
2012-3-22,76,63,56,62,56,-100,100,80,49,0.00,40.00,9,-4,17,0.11
2012-3-23,61,58,55,61,58,55,100,97,89,0.00,40.00,6,4,13,0.43
2012-3-24,62,57,54,57,55,52,100,94,84,0.00,40.00,6,4,12,0.10
2012-3-25,67,55,49,52,43,24,100,71,25,0.00,40.00,14,6,20,0.01
2012-3-26,49,40,32,38,25,20,78,54,43,0.00,40.00,10,9,22,0.00
2012-3-27,76,55,39,55,36,25,65,51,25,0.00,40.00,21,13,38,0.00
2012-3-28,59,51,41,40,35,32,74,56,40,0.00,40.00,18,12,33,0.00
2012-3-29,55,42,30,35,31,27,91,67,40,0.00,40.00,9,6,23,0.00
2012-3-30,42,38,34,39,36,29,99,92,76,0.00,40.00,9,5,18,0.70
2012-3-31,42,39,37,39,37,35,98,92,86,0.00,40.00,6,5,15,0.01
2012-4-1,61,48,35,45,41,34,100,80,46,0.00,40.00,9,4,19,0.00
2012-4-2,64,52,43,40,37,35,83,59,39,0.00,40.00,12,8,22,0.00
2012-4-3,61,52,40,45,40,33,84,63,42,0.00,40.00,10,5,21,0.00
2012-4-4,65,48,28,33,29,25,90,54,23,0.00,40.00,9,4,16,0.00
2012-4-5,56,44,34,30,26,23,74,50,29,0.00,40.00,9,6,17,0.00
2012-4-6,60,44,24,30,26,21,87,55,29,0.00,40.00,8,4,16,0.00
2012-4-7,64,50,35,48,35,26,96,59,34,0.00,40.00,14,7,28,0.04
2012-4-8,60,48,37,41,27,22,93,49,23,0.00,40.00,23,9,37,0.04
2012-4-9,53,43,32,23,19,14,65,41,23,0.00,40.00,21,12,40,0.00
2012-4-10,44,35,28,16,15,13,61,44,30,0.00,40.00,18,12,32,0.00
2012-4-11,58,41,27,27,22,16,73,49,30,0.00,40.00,11,6,18,0.00
2012-4-12,65,46,25,31,24,21,85,50,20,0.00,40.00,7,3,17,0.00
2012-4-13,61,51,42,41,32,29,67,50,30,0.00,40.00,15,8,29,0.00
2012-4-14,77,60,49,57,44,-100,98,66,24,0.00,40.00,11,6,21,0.12
2012-4-15,77,66,57,64,59,55,99,81,54,0.00,40.00,21,10,47,0.90
2012-4-16,69,49,38,55,38,26,83,65,53,0.00,40.00,23,16,40,0.04
2012-4-17,61,44,26,36,29,24,94,60,32,0.00,40.00,8,4,19,0.00
2012-4-18,70,57,49,49,41,36,71,57,37,0.00,40.00,18,9,30,0.00
2012-4-19,51,44,36,44,38,33,97,79,51,0.00,40.00,9,6,22,1.24
2012-4-20,57,43,34,36,32,26,97,71,30,0.00,40.00,10,6,21,1.03
2012-4-21,57,45,29,32,26,-100,95,56,28,0.00,40.00,6,4,15,0.01
2012-4-22,60,48,38,33,26,21,62,44,23,0.00,40.00,9,6,17,0.00
2012-4-23,62,50,35,35,32,23,88,53,29,0.00,40.00,17,9,29,0.00
2012-4-24,70,52,37,35,30,23,72,46,24,0.00,40.00,9,3,20,0.00
2012-4-25,56,50,44,47,40,30,90,71,40,0.00,40.00,10,5,19,0.07
2012-4-26,57,47,35,43,32,22,97,61,25,0.00,40.00,17,7,29,0.01
2012-4-27,59,45,25,28,22,18,84,46,23,0.00,40.00,9,5,21,0.00
2012-4-28,46,42,40,39,29,-100,93,63,34,0.00,40.00,12,6,24,0.13
2012-4-29,58,46,31,41,30,22,97,59,26,0.00,40.00,11,5,20,0.50
2012-4-30,54,47,42,47,43,40,99,88,67,0.00,40.00,9,4,13,0.51
2012-5-1,69,56,41,54,47,40,99,76,45,0.00,40.00,11,6,20,0.00
2012-5-2,84,70,58,67,59,54,100,72,43,0.00,40.00,11,7,33,0.90
2012-5-3,81,70,64,67,64,62,100,84,54,0.00,40.00,9,4,14,2.13
2012-5-4,65,62,58,62,55,47,96,79,62,0.00,40.00,10,6,17,0.11
2012-5-5,63,55,49,57,51,-100,97,89,72,0.00,40.00,8,6,19,0.51
2012-5-6,63,56,50,59,54,49,99,93,85,0.00,40.00,9,6,22,1.29
2012-5-7,73,58,48,54,48,44,99,73,39,0.00,40.00,12,6,20,0.01
2012-5-8,64,55,46,50,45,38,88,71,38,0.00,40.00,15,6,26,0.26
2012-5-9,65,55,46,47,40,33,97,63,31,0.00,40.00,11,7,21,0.16
2012-5-10,73,57,34,42,34,27,96,51,21,0.00,40.00,8,4,17,0.00
2012-5-11,81,64,49,55,46,36,74,53,40,0.00,40.00,17,9,30,0.00
2012-5-12,71,60,46,47,38,-100,83,51,22,0.00,40.00,11,6,26,0.00
2012-5-13,75,58,37,42,34,28,94,51,18,0.00,40.00,9,4,17,0.00
2012-5-14,82,65,42,43,39,36,84,45,20,0.00,40.00,12,7,21,0.00
2012-5-15,80,68,54,46,42,36,65,41,21,0.00,40.00,17,9,28,0.00
2012-5-16,72,58,40,42,36,30,91,49,22,0.00,40.00,8,4,20,0.00
2012-5-17,75,61,43,41,39,37,83,50,27,0.00,40.00,13,6,26,0.00
2012-5-18,88,72,55,49,43,36,56,37,20,0.00,40.00,14,7,26,0.00
2012-5-19,91,76,59,57,50,-100,63,45,28,0.00,40.00,16,7,31,0.00
2012-5-20,84,72,53,62,57,45,85,59,40,0.00,40.00,20,11,34,0.00
2012-5-21,75,61,43,45,41,37,95,55,26,0.00,40.00,13,8,42,0.00
2012-5-22,78,64,47,44,41,38,78,47,26,0.00,40.00,7,5,17,0.00
2012-5-23,83,69,55,47,43,39,62,42,24,0.00,40.00,13,7,26,0.00
2012-5-24,91,75,63,65,53,43,97,49,27,0.00,40.00,23,10,45,0.99
2012-5-25,74,64,52,59,53,48,97,72,40,0.00,40.00,12,6,21,0.99
2012-5-26,66,62,59,62,60,57,99,93,79,0.00,40.00,11,5,25,0.83
2012-5-27,92,76,63,70,64,59,89,67,40,0.00,40.00,10,7,21,0.05
2012-5-28,84,76,69,67,61,52,78,61,46,0.00,40.00,17,8,31,0.07
2012-5-29,69,62,53,52,46,41,87,58,38,0.00,40.00,18,10,35,0.02
2012-5-30,64,56,52,48,43,40,71,62,43,0.00,40.00,13,7,20,0.00
2012-5-31,59,53,50,47,43,38,90,70,46,0.00,40.00,5,3,10,0.00
2012-6-1,72,56,37,45,38,34,96,59,27,0.00,40.00,10,4,18,0.00
2012-6-2,76,63,46,43,39,-100,84,48,25,0.00,40.00,14,8,25,0.00
2012-6-3,82,68,52,51,47,43,72,49,28,0.00,40.00,12,6,23,0.00
2012-6-4,82,69,54,57,53,48,93,61,33,0.00,40.00,7,3,14,0.00
2012-6-5,75,63,53,58,54,50,94,73,52,0.00,40.00,7,2,14,0.02
2012-6-6,80,65,46,55,47,41,95,58,27,0.00,40.00,6,2,12,0.01
2012-6-7,84,68,47,56,50,45,93,59,30,0.00,40.00,8,3,14,0.00
2012-6-8,87,72,57,62,56,52,87,62,36,0.00,40.00,12,6,22,0.01
2012-6-9,91,79,66,57,54,-100,68,47,28,0.00,40.00,13,8,22,0.01
2012-6-10,92,80,66,61,58,55,72,49,29,0.00,40.00,14,8,28,0.00
2012-6-11,85,75,66,67,60,47,97,62,38,0.00,40.00,14,10,27,0.19
2012-6-12,71,60,51,47,43,40,76,54,33,0.00,40.00,13,9,23,0.11
2012-6-13,76,62,43,51,45,41,93,59,33,0.00,40.00,9,3,18,0.00
2012-6-14,84,69,55,56,49,42,69,51,34,0.00,40.00,9,5,23,0.00
2012-6-15,93,78,64,65,58,52,75,51,32,0.00,40.00,10,5,18,0.00
2012-6-16,77,72,66,71,61,55,96,70,50,0.00,40.00,15,5,35,0.66
2012-6-17,83,71,60,66,58,49,99,68,33,0.00,40.00,9,5,17,0.55
2012-6-18,90,80,65,74,68,55,98,69,52,0.00,40.00,16,8,33,0.88
2012-6-19,94,84,75,74,68,64,92,62,39,0.00,40.00,16,8,29,0.01
2012-6-20,93,83,68,69,67,65,98,63,42,0.00,40.00,16,11,31,0.40
2012-6-21,78,69,61,65,59,53,98,72,42,0.00,40.00,13,8,24,1.11
2012-6-22,82,70,53,59,54,50,95,63,34,0.00,40.00,13,6,22,0.01
2012-6-23,83,70,55,64,58,53,93,69,47,0.00,40.00,9,4,14,0.00
2012-6-24,87,75,61,67,62,54,92,67,45,0.00,40.00,8,4,18,0.00
2012-6-25,79,69,55,54,48,42,84,51,32,0.00,40.00,8,5,20,0.00
2012-6-26,83,69,47,56,49,45,93,54,28,0.00,40.00,11,4,20,0.00
2012-6-27,94,78,63,71,59,51,69,53,34,0.00,40.00,13,6,24,0.00
2012-6-28,91,80,68,74,66,52,89,64,29,0.00,40.00,13,6,25,0.00
2012-6-29,90,76,58,64,59,52,93,62,28,0.00,40.00,8,3,13,0.00
2012-6-30,93,80,62,66,60,53,95,55,27,0.00,40.00,12,5,18,0.00
2012-7-1,96,79,61,68,61,51,94,60,22,0.00,40.00,5,2,13,0.00
2012-7-2,99,86,71,73,66,61,77,55,32,0.00,40.00,12,6,21,0.00
2012-7-3,98,85,73,71,66,61,85,57,34,0.00,40.00,13,7,30,0.00
2012-7-4,103,89,78,73,69,61,81,56,26,0.00,40.00,12,6,24,0.00
2012-7-5,100,88,75,77,71,67,83,59,36,0.00,40.00,11,6,20,0.00
2012-7-6,101,88,72,76,70,63,97,62,29,0.00,40.00,11,4,21,0.00
2012-7-7,87,79,70,70,64,59,88,63,42,0.00,40.00,11,5,19,0.00
2012-7-8,93,77,60,63,58,53,93,58,27,0.00,40.00,9,4,18,0.00
2012-7-9,91,78,60,65,56,48,94,54,26,0.00,40.00,12,4,22,0.00
2012-7-10,88,75,56,61,53,45,94,53,23,0.00,40.00,7,3,13,0.00
2012-7-11,91,78,60,54,51,46,72,42,23,0.00,40.00,7,4,18,0.00
2012-7-12,94,79,59,57,51,45,79,44,19,0.00,40.00,6,3,19,0.00
2012-7-13,91,79,62,67,59,55,79,52,32,0.00,40.00,12,6,24,0.00
2012-7-14,87,75,68,72,67,63,94,77,52,0.00,40.00,12,5,42,0.38
2012-7-15,95,80,66,71,66,60,97,68,31,0.00,40.00,8,3,14,0.23
2012-7-16,98,84,69,68,64,58,90,57,27,0.00,40.00,17,8,30,0.00
2012-7-17,99,85,74,72,68,63,89,61,31,0.00,40.00,12,7,20,0.02
2012-7-18,85,75,69,71,68,65,93,80,59,0.00,40.00,8,5,20,0.05
2012-7-19,75,69,60,67,62,55,92,80,64,0.00,40.00,9,5,16,0.05
2012-7-20,86,71,53,61,55,51,98,64,32,0.00,40.00,8,3,15,0.00
2012-7-21,88,74,65,68,64,59,90,71,44,0.00,40.00,11,5,18,0.02
2012-7-22,90,79,67,69,66,62,94,67,40,0.00,40.00,11,5,18,0.01
2012-7-23,99,86,70,74,67,61,92,56,29,0.00,40.00,13,7,23,0.00
2012-7-24,81,75,71,72,68,65,98,81,63,0.00,40.00,8,4,16,0.11
2012-7-25,97,81,67,73,66,57,80,62,42,0.00,40.00,16,9,28,0.05
2012-7-26,90,81,69,73,64,51,92,61,27,0.00,40.00,17,9,30,0.05
2012-7-27,83,71,63,63,61,57,95,73,42,0.00,40.00,11,6,17,0.00
2012-7-28,87,74,56,62,57,54,96,61,33,0.00,40.00,9,4,16,0.00
2012-7-29,81,72,63,67,62,58,89,74,59,0.00,40.00,10,5,18,0.01
2012-7-30,94,78,59,69,64,58,99,67,38,0.00,40.00,13,6,23,0.01
2012-7-31,91,77,62,63,59,54,93,59,31,0.00,40.00,10,5,28,0.00
2012-8-1,96,74,56,65,57,52,93,61,26,0.00,40.00,12,5,20,0.00
2012-8-2,87,79,69,69,64,61,92,63,42,0.00,40.00,13,5,30,0.09
2012-8-3,95,78,62,69,65,59,96,68,30,0.00,40.00,7,4,14,0.00
2012-8-4,85,73,66,68,66,61,93,80,50,0.00,40.00,17,6,32,0.03
2012-8-5,78,68,59,61,52,45,92,62,33,0.00,40.00,14,8,26,0.01
2012-8-6,84,66,46,55,50,44,94,62,31,0.00,40.00,10,5,17,0.00
2012-8-7,92,77,62,64,56,51,81,53,26,0.00,40.00,12,6,22,0.00
2012-8-8,78,69,59,64,59,53,87,70,51,0.00,40.00,8,3,12,0.00
2012-8-9,68,63,58,63,60,56,98,92,77,0.00,40.00,8,4,17,0.59
2012-8-10,78,66,56,57,53,46,99,67,35,0.00,40.00,14,6,23,0.09
2012-8-11,81,63,46,53,46,-100,96,63,27,0.00,40.00,10,5,23,0.00
2012-8-12,76,65,53,60,54,50,92,70,44,0.00,40.00,8,4,16,0.00
2012-8-13,81,68,60,62,58,53,97,75,40,0.00,40.00,9,5,17,0.02
2012-8-14,82,69,57,60,56,51,98,67,35,0.00,40.00,9,3,16,0.01
2012-8-15,86,73,59,58,56,52,90,60,32,0.00,40.00,13,4,22,0.00
2012-8-16,71,68,60,66,58,51,98,73,55,0.00,40.00,15,9,27,0.78
2012-8-17,75,61,47,51,46,39,96,62,29,0.00,40.00,14,6,21,0.01
2012-8-18,77,61,42,50,45,41,95,61,29,0.00,40.00,9,3,19,0.00
2012-8-19,77,64,54,54,51,46,91,64,33,0.00,40.00,7,3,17,0.00
2012-8-20,77,61,43,48,42,34,93,57,22,0.00,40.00,9,3,20,0.00
2012-8-21,82,64,44,49,45,41,91,58,26,0.00,40.00,8,3,18,0.00
2012-8-22,88,70,51,57,49,46,84,53,25,0.00,40.00,11,5,20,0.00
2012-8-23,91,79,66,61,58,52,72,50,27,0.00,40.00,9,4,18,0.00
2012-8-24,91,76,65,64,58,50,93,56,26,0.00,40.00,15,7,28,0.08
2012-8-25,92,77,60,62,57,53,87,55,28,0.00,40.00,12,5,21,0.07
2012-8-26,78,71,67,69,67,65,98,89,70,0.00,40.00,7,4,16,0.82
2012-8-27,86,72,58,65,58,53,98,68,34,0.00,40.00,9,4,18,0.01
2012-8-28,84,69,54,64,58,53,96,72,41,0.00,40.00,6,2,10,0.01
2012-8-29,89,74,63,65,62,59,94,69,44,0.00,40.00,10,5,19,0.00
2012-8-30,93,81,69,65,63,61,82,58,35,0.00,40.00,17,10,28,0.00
2012-8-31,87,76,66,65,59,52,87,59,30,0.00,40.00,6,4,13,0.00
2012-9-1,84,72,60,58,54,49,84,56,31,0.00,40.00,10,6,19,0.00
2012-9-2,89,74,60,65,60,53,85,63,44,0.00,40.00,7,5,16,0.00
2012-9-3,86,74,65,72,66,61,92,77,58,0.00,40.00,10,4,15,0.00
2012-9-4,91,76,64,69,63,54,97,71,35,0.00,40.00,9,4,17,0.00
2012-9-5,84,72,61,60,57,54,81,62,38,0.00,40.00,12,6,23,0.02
2012-9-6,83,67,51,56,49,42,95,59,24,0.00,40.00,10,4,19,0.02
2012-9-7,67,62,54,59,54,47,93,76,52,0.00,40.00,11,5,17,0.13
2012-9-8,71,56,46,55,48,45,96,76,40,0.00,40.00,15,8,43,0.41
2012-9-9,72,58,48,55,49,44,99,76,36,0.00,40.00,10,6,17,0.41
2012-9-10,78,62,44,51,47,42,95,63,34,0.00,40.00,14,6,22,0.01
2012-9-11,88,72,56,57,52,50,79,54,30,0.00,40.00,17,9,30,0.00
2012-9-12,80,69,52,57,50,34,95,55,26,0.00,40.00,14,8,22,0.40
2012-9-13,66,54,50,54,44,-100,97,79,51,0.00,40.00,9,4,13,0.71
2012-9-14,75,58,44,50,43,34,97,67,23,0.00,40.00,10,4,20,0.05
2012-9-15,79,59,40,48,42,38,95,61,25,0.00,40.00,14,5,23,0.00
2012-9-16,78,64,51,48,44,39,80,52,28,0.00,40.00,15,7,28,0.00
2012-9-17,64,57,47,54,51,43,95,80,60,0.00,40.00,12,7,22,0.15
2012-9-18,56,46,34,43,36,27,96,74,32,0.00,40.00,13,6,22,0.06
2012-9-19,73,55,32,47,38,29,90,56,33,0.00,40.00,19,8,33,0.00
2012-9-20,62,53,42,42,38,33,83,61,33,0.00,40.00,14,7,26,0.00
2012-9-21,61,51,41,44,39,35,90,66,46,0.00,40.00,9,5,30,0.00
2012-9-22,57,45,37,42,35,-100,95,73,42,0.00,40.00,18,9,28,0.14
2012-9-23,57,44,32,35,31,28,93,66,33,0.00,40.00,15,7,28,0.01
2012-9-24,73,53,33,38,32,29,84,51,26,0.00,40.00,19,9,33,0.00
2012-9-25,72,58,40,44,40,37,89,53,29,0.00,40.00,10,5,17,0.00
2012-9-26,64,51,35,40,36,33,94,60,32,0.00,40.00,6,3,17,0.00
2012-9-27,66,49,30,42,36,28,93,67,33,0.00,40.00,5,2,11,0.00
2012-9-28,73,51,31,43,36,29,92,64,25,0.00,40.00,7,2,14,0.00
2012-9-29,78,56,38,44,40,35,91,61,23,0.00,40.00,7,2,13,0.00
2012-9-30,71,54,38,48,43,36,93,69,37,0.00,40.00,5,2,11,0.00
2012-10-1,74,57,42,47,42,38,87,61,32,0.00,40.00,7,4,13,0.00
2012-10-2,73,58,45,50,47,44,97,70,37,0.00,40.00,6,3,13,0.00
2012-10-3,76,59,39,52,46,38,98,68,34,0.00,40.00,7,2,12,0.00
2012-10-4,63,54,44,50,40,28,88,61,36,0.00,40.00,16,10,27,0.00
2012-10-5,51,43,36,29,26,21,77,51,36,0.00,40.00,16,11,28,0.00
2012-10-6,45,41,38,29,24,21,66,52,45,0.00,40.00,14,10,24,0.00
2012-10-7,51,40,30,26,20,14,79,47,25,0.00,40.00,11,6,23,0.00
2012-10-8,62,48,33,32,26,16,56,42,31,0.00,40.00,17,10,34,0.00
2012-10-9,56,47,39,47,39,31,94,77,38,0.00,40.00,17,7,31,0.31
2012-10-10,49,41,33,33,25,21,80,56,33,0.00,40.00,16,9,27,0.01
2012-10-11,53,47,34,34,27,17,58,46,32,0.00,40.00,16,10,28,0.00
2012-10-12,53,37,21,28,20,16,87,56,24,0.00,40.00,9,3,20,0.00
2012-10-13,60,48,40,60,47,34,100,96,72,0.00,40.00,6,3,13,1.37
2012-10-14,60,49,43,60,48,38,100,96,83,0.00,40.00,13,8,22,2.07
2012-10-15,59,45,35,40,37,34,95,78,43,0.00,40.00,8,5,19,0.05
2012-10-16,70,56,42,49,43,39,89,66,40,0.00,40.00,8,5,20,0.00
2012-10-17,65,56,50,56,50,46,98,83,56,0.00,40.00,13,5,21,0.26
2012-10-18,51,46,42,46,42,40,95,87,79,0.00,40.00,9,6,17,0.24
2012-10-19,53,45,42,43,41,38,98,87,59,0.00,40.00,6,4,16,0.07
2012-10-20,58,43,34,41,37,32,97,81,49,0.00,40.00,8,4,14,0.01
2012-10-21,66,48,32,46,40,31,96,74,45,0.00,40.00,8,4,17,0.00
2012-10-22,62,55,48,53,50,46,95,82,70,0.00,40.00,7,4,14,0.00
2012-10-23,63,57,52,62,55,50,97,92,88,0.00,40.00,7,5,15,0.00
2012-10-24,72,66,60,65,63,60,100,90,77,0.00,40.00,6,4,12,0.00
2012-10-25,70,55,37,64,51,29,96,85,75,0.00,40.00,18,11,29,0.46
2012-10-26,43,38,31,29,25,23,76,60,44,0.00,40.00,14,8,23,0.07
2012-10-27,45,36,29,25,20,12,80,55,26,0.00,40.00,11,4,20,0.00
2012-10-28,49,33,20,25,20,17,87,63,28,0.00,40.00,5,2,10,0.00
2012-10-29,51,33,18,25,19,15,87,62,25,0.00,40.00,6,2,11,0.00
2012-10-30,49,36,28,28,22,16,83,59,27,0.00,40.00,19,10,29,0.00
2012-10-31,49,34,25,24,18,10,84,55,22,0.00,40.00,14,9,22,0.00
2012-11-1,50,39,29,30,21,12,85,49,37,0.00,40.00,14,8,25,0.00
2012-11-2,46,34,24,27,24,21,92,69,38,0.00,40.00,7,4,11,0.00
2012-11-3,44,36,29,28,25,23,86,66,50,0.00,40.00,6,4,12,0.00
2012-11-4,48,37,30,28,26,24,84,68,43,0.00,40.00,6,3,11,0.00
2012-11-5,45,32,23,27,24,20,93,75,46,0.00,40.00,6,3,11,0.00
2012-11-6,35,34,29,34,31,26,98,91,75,0.00,40.00,7,4,12,0.19
2012-11-7,37,35,34,34,33,32,98,94,86,0.00,40.00,7,3,9,0.01
2012-11-8,53,40,32,35,33,30,95,80,51,0.00,40.00,13,5,21,0.00
2012-11-9,48,43,34,42,38,33,95,82,69,0.00,40.00,8,5,18,0.00
2012-11-10,68,55,44,53,48,41,94,77,58,0.00,40.00,13,8,26,0.00
2012-11-11,67,51,29,55,44,20,98,79,47,0.00,40.00,16,10,32,1.06
2012-11-12,28,25,23,20,14,12,72,63,56,0.00,40.00,16,12,26,0.06
2012-11-13,40,28,15,20,16,12,87,63,37,0.00,40.00,8,5,15,0.00
2012-11-14,52,40,32,30,24,-100,67,56,39,0.00,40.00,11,6,19,0.00
2012-11-15,54,41,28,30,28,25,93,63,37,0.00,40.00,9,5,18,0.00
2012-11-16,46,34,22,33,28,19,92,79,60,0.00,40.00,7,4,15,0.00
2012-11-17,54,42,34,37,34,31,99,76,46,0.00,40.00,9,5,19,0.00
2012-11-18,58,46,37,33,31,28,81,58,32,0.00,40.00,10,6,19,0.00
2012-11-19,48,45,40,41,36,32,89,69,61,0.00,40.00,6,4,20,0.03
2012-11-20,58,44,31,42,38,29,97,82,51,0.00,40.00,8,2,16,0.01
2012-11-21,61,45,29,44,38,29,100,79,47,0.00,40.00,11,6,20,0.00
2012-11-22,63,53,37,45,39,24,69,59,45,0.00,40.00,18,12,37,0.00
2012-11-23,34,27,24,24,15,13,67,61,58,0.00,40.00,21,16,38,0.00
2012-11-24,32,25,19,18,12,9,66,57,42,0.00,40.00,12,6,19,0.00
2012-11-25,37,30,23,19,18,16,77,62,47,0.00,40.00,12,7,24,0.00
2012-11-26,27,26,22,20,18,12,76,71,60,0.00,40.00,13,6,23,0.00
2012-11-27,32,22,5,12,8,0,80,56,39,0.00,40.00,11,7,18,0.00
2012-11-28,36,26,15,21,16,11,88,68,48,0.00,40.00,7,4,16,0.00
2012-11-29,46,35,22,29,25,19,88,68,49,0.00,40.00,9,4,17,0.00
2012-11-30,36,33,30,33,30,28,97,90,82,0.00,40.00,9,6,19,0.00
2012-12-1,50,41,35,49,39,33,100,91,79,0.00,40.00,8,5,14,0.00
2012-12-2,50,42,38,50,41,37,100,96,89,0.00,40.00,7,4,13,0.00
2012-12-3,61,49,39,59,47,37,100,94,75,0.00,40.00,15,8,32,0.09
2012-12-4,46,39,24,37,25,11,85,58,41,0.00,40.00,17,10,30,0.08
2012-12-5,35,25,13,22,14,9,84,64,43,0.00,40.00,8,4,17,0.00
2012-12-6,46,38,33,35,30,24,81,71,61,0.00,40.00,11,8,21,0.00
2012-12-7,36,33,29,28,24,21,80,71,57,0.00,40.00,9,6,14,0.00
2012-12-8,39,30,26,24,23,21,85,76,52,0.00,40.00,5,3,9,0.00
2012-12-9,33,31,31,31,28,24,99,88,75,0.00,40.00,9,6,20,0.07
2012-12-10,30,24,20,29,22,17,98,90,87,0.00,40.00,6,5,11,0.16
2012-12-11,24,21,17,21,17,14,92,86,72,0.00,40.00,10,5,20,0.00
2012-12-12,42,30,16,27,21,13,95,72,49,0.00,40.00,12,6,23,0.00
2012-12-13,44,35,22,22,20,17,88,56,38,0.00,40.00,13,7,20,0.00
2012-12-14,44,31,20,32,23,17,94,75,47,0.00,40.00,9,4,15,0.00
2012-12-15,40,38,35,40,37,32,100,94,82,0.00,40.00,9,5,20,0.38
2012-12-16,39,36,31,39,35,28,100,97,93,0.00,40.00,10,6,17,0.08
2012-12-17,30,26,22,28,21,18,93,84,77,0.00,40.00,11,6,18,0.01
2012-12-18,29,26,19,26,23,17,92,88,83,0.00,40.00,6,3,12,0.00
2012-12-19,34,31,28,28,27,25,90,85,76,0.00,40.00,6,3,14,0.00
2012-12-20,31,30,26,30,28,19,98,93,79,0.00,40.00,26,15,40,0.44
2012-12-21,25,18,12,19,10,3,79,71,57,0.00,40.00,20,13,33,0.01
2012-12-22,31,13,-1,11,4,-6,83,68,35,0.00,40.00,9,3,13,0.00
2012-12-23,29,18,6,16,11,2,86,75,54,0.00,40.00,7,4,18,0.00
2012-12-24,26,20,14,15,12,5,85,72,58,0.00,40.00,11,6,15,0.00
2012-12-25,25,11,0,8,2,-5,81,68,47,0.00,40.00,11,5,18,0.00
2012-12-26,28,15,3,14,4,-100,86,70,54,0.00,40.00,9,5,12,0.00
2012-12-27,25,20,14,16,13,9,83,73,59,0.00,40.00,7,3,12,0.00
2012-12-28,25,21,19,22,18,15,94,89,83,0.00,40.00,5,4,10,0.10
2012-12-29,24,20,12,20,16,9,93,84,76,0.00,40.00,12,8,20,0.01
2012-12-30,26,15,2,12,8,-2,88,74,53,0.00,40.00,7,5,12,0.00
2012-12-31,22,15,2,18,8,-4,93,75,55,0.00,40.00,16,8,26,0.00
2013-1-1,15,4,-10,2,-6,-16,78,64,46,0.00,40.00,10,5,16,0.00